Time;durP1;ratioP1;P1;durP2;ratioP2;P2;SDS_P1;SDS_P2;PMS_P1;PMS_P2;Temp;Humidity;BMP_temperature;BMP_pressure;BME280_temperature;BME280_humidity;BME280_pressure;Samples;Min_cycle;Max_cycle;Signal;HPM_P1;HPM_P2
2023/11/17 00:01:38;;;;;;;55.57;29.20;;;10.40;99.90;;;;;;7286497;19;21909;-78
2023/11/17 00:04:04;;;;;;;52.93;29.23;;;10.40;99.90;;;;;;7283773;19;20189;-79
2023/11/17 00:06:31;;;;;;;50.10;27.90;;;10.40;99.90;;;;;;7309751;19;20203;-78
2023/11/17 00:08:58;;;;;;;52.37;28.93;;;10.40;99.90;;;;;;7287498;19;20198;-78
2023/11/17 00:11:23;;;;;;;57.63;28.57;;;10.30;99.90;;;;;;7287368;19;20218;-78
2023/11/17 00:13:49;;;;;;;58.27;28.27;;;10.40;99.90;;;;;;7285053;19;20199;-78
2023/11/17 00:16:17;;;;;;;52.67;29.07;;;10.30;99.90;;;;;;7285248;19;20227;-78
2023/11/17 00:18:43;;;;;;;57.77;29.37;;;10.30;99.90;;;;;;7285984;19;20191;-78
2023/11/17 00:21:10;;;;;;;54.53;28.40;;;10.20;99.90;;;;;;7284283;19;20606;-77
2023/11/17 00:23:37;;;;;;;48.77;27.50;;;10.20;99.90;;;;;;7282570;19;20653;-77
2023/11/17 00:26:04;;;;;;;55.80;28.70;;;10.20;99.90;;;;;;7288040;19;20195;-77
2023/11/17 00:28:39;;;;;;;54.43;27.67;;;10.10;99.90;;;;;;7306255;19;20205;-78
2023/11/17 00:31:09;;;;;;;51.60;27.30;;;10.10;99.90;;;;;;7263557;19;20194;-77
2023/11/17 00:33:38;;;;;;;56.37;28.13;;;10.00;99.90;;;;;;7285158;19;20661;-78
2023/11/17 00:36:09;;;;;;;51.63;28.07;;;10.00;99.90;;;;;;7285546;19;20198;-78
2023/11/17 00:38:36;;;;;;;57.83;29.07;;;9.90;99.90;;;;;;7283725;19;20629;-78
2023/11/17 00:41:03;;;;;;;53.80;28.10;;;9.90;99.90;;;;;;7298623;19;20201;-78
2023/11/17 00:43:29;;;;;;;58.43;27.83;;;9.90;99.90;;;;;;7306786;19;20633;-78
2023/11/17 00:45:58;;;;;;;52.67;27.53;;;9.90;99.90;;;;;;7283303;19;20776;-78
2023/11/17 00:48:28;;;;;;;52.90;29.03;;;9.80;99.90;;;;;;7283377;19;20203;-78
2023/11/17 00:50:55;;;;;;;53.23;27.00;;;9.80;99.90;;;;;;7283077;19;20673;-78
2023/11/17 00:53:26;;;;;;;47.77;25.30;;;9.80;99.90;;;;;;7285113;19;21367;-78
2023/11/17 00:56:01;;;;;;;57.40;26.80;;;9.80;99.90;;;;;;7285017;19;20206;-78
2023/11/17 00:58:27;;;;;;;49.93;27.33;;;9.90;99.90;;;;;;7283278;19;20189;-77
2023/11/17 01:00:53;;;;;;;49.77;27.17;;;9.90;99.90;;;;;;7284584;19;21732;-77
2023/11/17 01:03:20;;;;;;;55.03;27.03;;;9.90;99.90;;;;;;7283946;19;20189;-78
2023/11/17 01:05:46;;;;;;;56.17;28.20;;;10.00;99.90;;;;;;7284758;19;20193;-78
2023/11/17 01:08:12;;;;;;;52.23;29.03;;;10.10;99.90;;;;;;7284299;19;20194;-78
2023/11/17 01:10:38;;;;;;;52.33;28.30;;;10.10;99.90;;;;;;7283240;19;20190;-77
2023/11/17 01:13:05;;;;;;;59.00;28.63;;;10.00;99.90;;;;;;7282301;19;20267;-78
2023/11/17 01:15:34;;;;;;;58.43;29.27;;;10.10;99.90;;;;;;7300967;19;20693;-77
2023/11/17 01:18:05;;;;;;;56.40;29.17;;;10.00;99.90;;;;;;7305905;19;20193;-78
2023/11/17 01:20:34;;;;;;;59.70;29.67;;;10.10;99.90;;;;;;7284270;19;20207;-78
2023/11/17 01:23:01;;;;;;;58.67;28.50;;;10.10;99.90;;;;;;7283169;19;20644;-78
2023/11/17 01:25:34;;;;;;;59.33;30.57;;;10.10;99.90;;;;;;7283169;19;20187;-77
2023/11/17 01:28:06;;;;;;;67.40;29.87;;;10.10;99.90;;;;;;7282406;19;20191;-78
2023/11/17 01:30:32;;;;;;;67.20;31.30;;;10.10;99.90;;;;;;7270299;19;20210;-78
2023/11/17 01:32:59;;;;;;;73.63;31.40;;;10.10;99.90;;;;;;7304737;19;20194;-78
2023/11/17 01:35:27;;;;;;;69.10;31.83;;;10.10;99.90;;;;;;7282531;19;20189;-78
2023/11/17 01:37:54;;;;;;;73.43;33.33;;;10.20;99.90;;;;;;7282730;19;20193;-78
2023/11/17 01:40:22;;;;;;;74.43;33.00;;;10.30;99.90;;;;;;7283270;19;20258;-78
2023/11/17 01:42:48;;;;;;;78.20;33.93;;;10.40;99.90;;;;;;7281037;19;20608;-78
2023/11/17 01:45:14;;;;;;;77.77;33.70;;;10.40;99.90;;;;;;7281247;19;20197;-78
2023/11/17 01:47:42;;;;;;;82.60;34.47;;;10.40;99.90;;;;;;7281749;19;20192;-78
2023/11/17 01:50:14;;;;;;;88.07;35.57;;;10.40;99.90;;;;;;7283830;19;20280;-78
2023/11/17 01:52:42;;;;;;;79.80;36.00;;;10.40;99.90;;;;;;7280250;19;20190;-77
2023/11/17 01:55:09;;;;;;;90.80;38.00;;;10.40;99.90;;;;;;7283254;19;20204;-77
2023/11/17 01:57:37;;;;;;;90.93;36.93;;;10.40;99.90;;;;;;7280353;19;20197;-78
2023/11/17 02:00:06;;;;;;;90.27;37.23;;;10.30;99.90;;;;;;7287034;19;20245;-78
2023/11/17 02:02:38;;;;;;;94.10;38.00;;;10.30;99.90;;;;;;7281416;19;20182;-79
2023/11/17 02:05:07;;;;;;;85.50;35.63;;;10.40;99.90;;;;;;7282359;19;20190;-78
2023/11/17 02:07:50;;;;;;;92.00;36.90;;;10.30;99.90;;;;;;7282396;19;20204;-78
2023/11/17 02:10:22;;;;;;;83.20;36.73;;;10.20;99.90;;;;;;7281240;19;20191;-78
2023/11/17 02:13:16;;;;;;;87.30;36.20;;;10.20;99.90;;;;;;7281630;19;20536;-78
2023/11/17 02:15:43;;;;;;;91.70;35.40;;;10.20;99.90;;;;;;7179729;19;2006052;-78
2023/11/17 02:18:13;;;;;;;86.30;36.53;;;10.30;99.90;;;;;;7281454;19;20186;-78
2023/11/17 02:20:41;;;;;;;85.63;36.80;;;10.40;99.90;;;;;;7281346;19;20220;-77
2023/11/17 02:23:15;;;;;;;80.87;35.53;;;10.30;99.90;;;;;;7281880;19;20208;-78
2023/11/17 02:25:59;;;;;;;87.30;37.83;;;10.30;99.90;;;;;;7281927;19;20308;-78
2023/11/17 02:28:41;;;;;;;86.37;36.63;;;10.30;99.90;;;;;;7280932;19;20192;-78
2023/11/17 02:31:17;;;;;;;80.47;35.93;;;10.30;99.90;;;;;;7179325;19;2004715;-77
2023/11/17 02:33:49;;;;;;;78.33;35.97;;;10.20;99.90;;;;;;7280965;19;20186;-78
2023/11/17 02:36:19;;;;;;;81.67;36.57;;;10.20;99.90;;;;;;7280411;19;20187;-78
2023/11/17 02:39:12;;;;;;;86.10;37.33;;;10.20;99.90;;;;;;7280932;19;20219;-78
2023/11/17 02:41:38;;;;;;;85.53;37.47;;;10.20;99.90;;;;;;7178229;19;2006043;-78
2023/11/17 02:44:04;;;;;;;79.80;34.30;;;10.30;99.90;;;;;;7278962;19;20179;-78
2023/11/17 02:46:33;;;;;;;83.13;35.93;;;10.30;99.90;;;;;;7303700;19;20652;-78
2023/11/17 02:49:17;;;;;;;79.33;35.17;;;10.30;99.90;;;;;;7288548;19;20206;-78
2023/11/17 02:51:51;;;;;;;68.90;32.63;;;10.30;99.90;;;;;;7186065;19;2004605;-78
2023/11/17 02:54:21;;;;;;;78.30;33.83;;;10.20;99.90;;;;;;7287755;19;20553;-79
2023/11/17 02:56:48;;;;;;;66.70;31.57;;;10.30;99.90;;;;;;7287624;19;20199;-78
2023/11/17 02:59:18;;;;;;;61.83;30.53;;;10.30;99.90;;;;;;7287731;19;20229;-78
2023/11/17 03:01:44;;;;;;;62.23;28.43;;;10.30;99.90;;;;;;7286318;19;20550;-78
2023/11/17 03:04:15;;;;;;;57.77;28.43;;;10.40;99.90;;;;;;7287878;19;20216;-78
2023/11/17 03:06:48;;;;;;;55.87;26.47;;;10.40;99.90;;;;;;7287385;19;20194;-78
2023/11/17 03:09:26;;;;;;;54.97;27.53;;;10.40;99.90;;;;;;7286395;19;20192;-78
2023/11/17 03:11:53;;;;;;;47.60;23.70;;;10.30;99.90;;;;;;7287198;19;20211;-79
2023/11/17 03:14:19;;;;;;;39.87;22.90;;;10.20;99.90;;;;;;7286533;19;20194;-78
2023/11/17 03:16:49;;;;;;;46.10;22.53;;;10.20;99.90;;;;;;7286735;19;20205;-78
2023/11/17 03:19:16;;;;;;;44.20;22.40;;;10.10;99.90;;;;;;7288334;19;20193;-78
2023/11/17 03:21:42;;;;;;;35.03;20.70;;;10.10;99.90;;;;;;7286568;19;20191;-78
2023/11/17 03:24:17;;;;;;;40.77;21.33;;;10.00;99.90;;;;;;7288380;19;20194;-78
2023/11/17 03:26:44;;;;;;;41.77;21.13;;;10.00;99.90;;;;;;7286623;19;20201;-78
2023/11/17 03:29:11;;;;;;;38.93;21.20;;;9.90;99.90;;;;;;7287889;19;20181;-78
2023/11/17 03:31:37;;;;;;;38.90;21.60;;;9.80;99.90;;;;;;7286284;19;20198;-78
2023/11/17 03:34:03;;;;;;;37.10;21.27;;;9.70;99.90;;;;;;7293127;19;20190;-78
2023/11/17 03:36:28;;;;;;;37.80;21.30;;;9.90;99.90;;;;;;7306084;19;20187;-78
2023/11/17 03:38:55;;;;;;;40.63;21.73;;;9.90;99.90;;;;;;7286822;19;20182;-78
2023/11/17 03:41:22;;;;;;;38.27;20.23;;;9.90;99.90;;;;;;7285876;19;20191;-78
2023/11/17 03:43:51;;;;;;;40.37;22.60;;;9.80;99.90;;;;;;7286654;19;20200;-78
2023/11/17 03:46:16;;;;;;;35.97;21.43;;;9.70;99.90;;;;;;7286189;19;20208;-78
2023/11/17 03:48:42;;;;;;;35.23;20.23;;;9.70;99.90;;;;;;7285589;19;20268;-78
2023/11/17 03:51:08;;;;;;;39.40;21.30;;;9.60;99.90;;;;;;7284686;19;20185;-77
2023/11/17 03:53:37;;;;;;;39.10;21.30;;;9.50;99.90;;;;;;7287540;19;20205;-78
2023/11/17 03:56:03;;;;;;;34.10;20.37;;;9.60;99.90;;;;;;7295323;19;20194;-77
2023/11/17 03:58:29;;;;;;;35.00;20.50;;;9.70;99.90;;;;;;7306788;19;20189;-78
2023/11/17 04:00:56;;;;;;;35.63;21.13;;;9.70;99.90;;;;;;7286089;19;20605;-78
2023/11/17 04:03:22;;;;;;;38.27;20.93;;;9.60;99.90;;;;;;7285584;19;20190;-78
2023/11/17 04:05:48;;;;;;;36.20;21.10;;;9.60;99.90;;;;;;7285588;19;20645;-79
2023/11/17 04:08:17;;;;;;;36.33;21.00;;;9.60;99.90;;;;;;7286441;19;20200;-78
2023/11/17 04:10:46;;;;;;;40.37;21.40;;;9.60;99.90;;;;;;7285836;19;20209;-78
2023/11/17 04:13:14;;;;;;;38.80;21.23;;;9.50;99.90;;;;;;7285201;19;20261;-78
2023/11/17 04:15:40;;;;;;;35.80;20.93;;;9.40;99.90;;;;;;7284288;19;20184;-78
2023/11/17 04:18:06;;;;;;;40.67;21.60;;;9.40;99.90;;;;;;7285694;19;20181;-78
2023/11/17 04:20:32;;;;;;;36.97;21.57;;;9.50;99.90;;;;;;7304093;19;20197;-78
2023/11/17 04:22:57;;;;;;;37.77;21.07;;;9.50;99.90;;;;;;7296577;19;20178;-79
2023/11/17 04:25:23;;;;;;;41.60;21.43;;;9.60;99.90;;;;;;7284704;19;21027;-78
2023/11/17 04:27:49;;;;;;;38.53;21.70;;;9.50;99.90;;;;;;7285434;19;20280;-78
2023/11/17 04:30:15;;;;;;;38.70;21.33;;;9.60;99.90;;;;;;7285554;19;20318;-78
2023/11/17 04:32:40;;;;;;;36.60;20.73;;;9.70;99.90;;;;;;7281496;19;20209;-78
2023/11/17 04:35:08;;;;;;;37.87;20.40;;;9.80;99.90;;;;;;7283484;19;20676;-78
2023/11/17 04:37:38;;;;;;;35.47;20.50;;;9.80;99.90;;;;;;7284847;19;20192;-79
2023/11/17 04:40:06;;;;;;;36.70;20.13;;;9.90;99.90;;;;;;7285103;19;20201;-78
2023/11/17 04:42:31;;;;;;;35.40;17.83;;;9.90;99.90;;;;;;7305602;19;20241;-78
2023/11/17 04:44:57;;;;;;;35.33;19.20;;;9.90;99.90;;;;;;7293863;19;20232;-78
2023/11/17 04:47:25;;;;;;;38.03;18.37;;;10.00;99.90;;;;;;7285169;19;20500;-79
2023/11/17 04:49:51;;;;;;;34.60;18.50;;;9.90;99.90;;;;;;7283833;19;20190;-78
2023/11/17 04:52:17;;;;;;;35.77;19.60;;;9.90;99.90;;;;;;7283492;19;20561;-78
2023/11/17 04:54:44;;;;;;;37.27;19.70;;;10.00;99.90;;;;;;7283786;19;20218;-78
2023/11/17 04:57:12;;;;;;;35.77;19.97;;;10.00;99.90;;;;;;7284180;19;20182;-78
2023/11/17 04:59:38;;;;;;;43.03;20.00;;;10.10;99.90;;;;;;7285360;19;20201;-78
2023/11/17 05:02:04;;;;;;;40.70;20.10;;;10.00;99.90;;;;;;7283877;19;20189;-78
2023/11/17 05:04:29;;;;;;;40.13;20.03;;;10.00;99.90;;;;;;7305908;19;20290;-78
2023/11/17 05:06:55;;;;;;;40.80;19.40;;;10.00;99.90;;;;;;7284652;19;20536;-79
2023/11/17 05:09:21;;;;;;;35.50;19.53;;;10.00;99.90;;;;;;7279811;19;20189;-78
2023/11/17 05:11:47;;;;;;;36.67;19.40;;;10.00;99.90;;;;;;7284617;19;20219;-78
2023/11/17 05:14:12;;;;;;;38.63;18.97;;;10.00;99.90;;;;;;7283063;19;20193;-79
2023/11/17 05:16:40;;;;;;;31.40;16.70;;;9.90;99.90;;;;;;7281752;19;20187;-78
2023/11/17 05:19:05;;;;;;;31.30;17.60;;;9.80;99.90;;;;;;7284201;19;20193;-78
2023/11/17 05:21:32;;;;;;;36.53;17.63;;;9.80;99.90;;;;;;7303183;19;20185;-78
2023/11/17 05:24:00;;;;;;;36.13;17.93;;;9.70;99.90;;;;;;7283662;19;20201;-79
2023/11/17 05:26:25;;;;;;;32.27;17.57;;;9.80;99.90;;;;;;7282660;19;20203;-78
2023/11/17 05:28:51;;;;;;;35.03;17.43;;;9.80;99.90;;;;;;7283003;19;20185;-78
2023/11/17 05:31:20;;;;;;;42.63;17.43;;;9.80;99.90;;;;;;7281538;19;20189;-78
2023/11/17 05:33:46;;;;;;;37.43;19.53;;;9.80;99.90;;;;;;7284985;19;20237;-78
2023/11/17 05:36:13;;;;;;;36.90;18.53;;;9.60;99.90;;;;;;7283532;19;20634;-78
2023/11/17 05:38:38;;;;;;;38.07;19.13;;;9.60;99.90;;;;;;7282503;19;20568;-78
2023/11/17 05:41:05;;;;;;;34.23;17.27;;;9.60;99.90;;;;;;7282995;19;20186;-78
2023/11/17 05:43:31;;;;;;;32.37;17.40;;;9.60;99.90;;;;;;7305393;19;20195;-78
2023/11/17 05:46:00;;;;;;;32.60;17.40;;;9.50;99.90;;;;;;7283095;19;20665;-78
2023/11/17 05:48:25;;;;;;;31.83;16.67;;;9.50;99.90;;;;;;7283923;19;20569;-80
2023/11/17 05:50:51;;;;;;;34.37;18.00;;;9.40;99.90;;;;;;7282408;19;20181;-78
2023/11/17 05:53:17;;;;;;;37.20;18.10;;;9.40;99.90;;;;;;7282917;19;20192;-77
2023/11/17 05:55:43;;;;;;;34.77;18.73;;;9.40;99.90;;;;;;7283334;19;20181;-79
2023/11/17 05:58:08;;;;;;;36.73;18.93;;;9.30;99.90;;;;;;7282375;19;20662;-78
2023/11/17 06:00:34;;;;;;;34.23;18.03;;;9.40;99.90;;;;;;7281359;19;20186;-78
2023/11/17 06:03:00;;;;;;;35.57;17.60;;;9.40;99.90;;;;;;7304697;19;20200;-77
2023/11/17 06:05:26;;;;;;;30.63;17.23;;;9.40;99.90;;;;;;7282099;19;20211;-77
2023/11/17 06:07:51;;;;;;;33.57;18.23;;;9.40;99.90;;;;;;7282996;19;20967;-79
2023/11/17 06:10:17;;;;;;;39.40;18.73;;;9.40;99.90;;;;;;7281016;19;20195;-78
2023/11/17 06:12:43;;;;;;;31.63;18.13;;;9.50;99.90;;;;;;7281520;19;20180;-78
2023/11/17 06:15:14;;;;;;;35.03;19.27;;;9.60;99.90;;;;;;7281634;19;20185;-79
2023/11/17 06:17:40;;;;;;;35.17;18.40;;;9.70;99.90;;;;;;7281755;19;20200;-77
2023/11/17 06:20:08;;;;;;;35.37;18.47;;;9.60;99.90;;;;;;7281897;19;20188;-78
2023/11/17 06:22:34;;;;;;;38.97;18.70;;;9.60;99.90;;;;;;7289625;19;20189;-78
2023/11/17 06:25:00;;;;;;;38.17;20.03;;;9.60;99.90;;;;;;7310633;19;20190;-77
2023/11/17 06:27:27;;;;;;;39.17;20.03;;;9.60;99.90;;;;;;7287540;19;20189;-78
2023/11/17 06:29:53;;;;;;;36.83;18.73;;;9.60;99.90;;;;;;7288971;19;20206;-78
2023/11/17 06:32:19;;;;;;;43.23;20.83;;;9.60;99.90;;;;;;7287166;19;20655;-77
2023/11/17 06:34:46;;;;;;;40.50;20.50;;;9.50;99.90;;;;;;7285354;19;20211;-77
2023/11/17 06:37:12;;;;;;;40.87;19.87;;;9.50;99.90;;;;;;7286895;19;20181;-79
2023/11/17 06:39:39;;;;;;;45.47;20.67;;;9.40;99.90;;;;;;7288834;19;20308;-79
2023/11/17 06:42:05;;;;;;;44.97;20.90;;;9.40;99.90;;;;;;7286296;19;20537;-79
2023/11/17 06:44:31;;;;;;;47.20;22.57;;;9.40;99.90;;;;;;7308930;19;20193;-79
2023/11/17 06:46:56;;;;;;;47.47;22.47;;;9.50;99.90;;;;;;7286397;19;20193;-79
2023/11/17 06:49:22;;;;;;;44.33;22.00;;;9.60;99.90;;;;;;7287940;19;20595;-79
2023/11/17 06:51:50;;;;;;;44.83;22.03;;;9.70;99.90;;;;;;7287836;19;20198;-78
2023/11/17 06:54:18;;;;;;;47.93;21.70;;;9.80;99.90;;;;;;7286318;19;20269;-78
2023/11/17 06:56:46;;;;;;;44.77;22.13;;;9.70;99.90;;;;;;7286345;19;20628;-78
2023/11/17 06:59:14;;;;;;;50.57;21.53;;;9.80;99.90;;;;;;7287797;19;20289;-78
2023/11/17 07:01:40;;;;;;;52.27;23.10;;;9.70;99.90;;;;;;7284012;19;20196;-78
2023/11/17 07:04:08;;;;;;;45.97;21.43;;;9.70;99.90;;;;;;7287459;19;20190;-78
2023/11/17 07:06:36;;;;;;;44.00;21.67;;;9.70;99.90;;;;;;7294312;19;20220;-78
2023/11/17 07:09:04;;;;;;;43.90;19.43;;;9.60;99.90;;;;;;7307713;19;20195;-78
2023/11/17 07:11:32;;;;;;;44.53;21.20;;;9.40;99.90;;;;;;7308309;19;20182;-79
2023/11/17 07:14:01;;;;;;;51.50;23.13;;;9.30;99.90;;;;;;7286883;19;20185;-78
2023/11/17 07:16:28;;;;;;;50.23;22.97;;;9.40;99.90;;;;;;7286232;19;20311;-78
2023/11/17 07:18:54;;;;;;;56.70;23.47;;;9.40;99.90;;;;;;7287328;19;20255;-78
2023/11/17 07:21:20;;;;;;;51.80;22.33;;;9.40;99.90;;;;;;7287654;19;20189;-78
2023/11/17 07:23:45;;;;;;;51.30;22.60;;;9.30;99.90;;;;;;7284016;19;20189;-78
2023/11/17 07:26:20;;;;;;;54.90;23.83;;;9.40;99.90;;;;;;7286954;19;20688;-78
2023/11/17 07:28:47;;;;;;;47.80;23.47;;;9.50;99.90;;;;;;7286322;19;20196;-78
2023/11/17 07:31:19;;;;;;;54.70;23.77;;;9.50;99.90;;;;;;7280323;19;20188;-78
2023/11/17 07:33:45;;;;;;;59.10;24.60;;;9.60;99.90;;;;;;7285047;19;20217;-78
2023/11/17 07:36:16;;;;;;;51.43;23.17;;;9.60;99.90;;;;;;7286153;19;20185;-78
2023/11/17 07:38:44;;;;;;;54.97;23.70;;;9.70;99.90;;;;;;7286813;19;20682;-78
2023/11/17 07:41:10;;;;;;;51.60;23.37;;;9.90;99.90;;;;;;7286291;19;20209;-78
2023/11/17 07:43:36;;;;;;;55.57;25.57;;;9.90;99.90;;;;;;7284265;19;20194;-78
2023/11/17 07:46:02;;;;;;;58.43;25.23;;;9.90;99.90;;;;;;7306394;19;20668;-78
2023/11/17 07:48:31;;;;;;;57.10;24.77;;;10.00;99.90;;;;;;7287543;19;20186;-78
2023/11/17 07:50:58;;;;;;;53.17;25.03;;;10.10;99.90;;;;;;7286735;19;20576;-78
2023/11/17 07:53:24;;;;;;;54.00;25.13;;;10.20;99.90;;;;;;7286640;19;20214;-78
2023/11/17 07:55:52;;;;;;;60.03;25.23;;;10.20;99.90;;;;;;7284327;19;20682;-78
2023/11/17 07:58:20;;;;;;;56.77;26.50;;;10.30;99.90;;;;;;7283958;19;20178;-78
2023/11/17 08:00:48;;;;;;;54.90;25.23;;;10.40;99.90;;;;;;7285798;19;20579;-78
2023/11/17 08:03:14;;;;;;;53.53;25.30;;;10.40;99.90;;;;;;7285453;19;20222;-78
2023/11/17 08:05:40;;;;;;;55.53;25.57;;;10.50;99.90;;;;;;7285059;19;20211;-77
2023/11/17 08:08:06;;;;;;;56.47;25.20;;;10.60;99.90;;;;;;7286950;19;20187;-77
2023/11/17 08:10:33;;;;;;;53.23;25.57;;;10.80;99.90;;;;;;7303682;19;20186;-77
2023/11/17 08:13:00;;;;;;;54.63;26.17;;;10.80;99.90;;;;;;7304436;19;20212;-78
2023/11/17 08:15:28;;;;;;;50.97;24.83;;;10.90;99.90;;;;;;7285379;19;20637;-78
2023/11/17 08:17:54;;;;;;;48.87;23.67;;;10.90;99.90;;;;;;7284817;19;20227;-78
2023/11/17 08:20:21;;;;;;;53.97;25.23;;;10.90;99.90;;;;;;7284124;19;20194;-78
2023/11/17 08:22:47;;;;;;;54.40;25.90;;;10.90;99.90;;;;;;7284253;19;20728;-78
2023/11/17 08:25:13;;;;;;;48.17;23.93;;;10.90;99.90;;;;;;7285185;19;20223;-78
2023/11/17 08:27:38;;;;;;;51.20;24.03;;;10.90;99.90;;;;;;7284874;19;20559;-78
2023/11/17 08:30:07;;;;;;;47.43;24.13;;;10.90;99.90;;;;;;7284508;19;20284;-78
2023/11/17 08:32:36;;;;;;;47.97;23.00;;;10.80;99.90;;;;;;7297990;19;20206;-78
2023/11/17 08:35:03;;;;;;;45.03;22.30;;;10.80;99.90;;;;;;7304803;19;20211;-78
2023/11/17 08:37:32;;;;;;;46.27;21.83;;;10.70;99.90;;;;;;7306063;19;20238;-78
2023/11/17 08:40:08;;;;;;;46.77;21.80;;;10.70;99.90;;;;;;7285657;19;20183;-78
2023/11/17 08:42:35;;;;;;;47.00;20.37;;;10.70;99.90;;;;;;7270514;19;20225;-78
2023/11/17 08:45:07;;;;;;;43.93;21.20;;;10.70;99.90;;;;;;7304317;19;20203;-78
2023/11/17 08:47:44;;;;;;;41.73;19.63;;;10.80;99.90;;;;;;7277880;19;20191;-78
2023/11/17 08:50:12;;;;;;;38.23;19.13;;;10.80;99.90;;;;;;7284929;19;20217;-78
2023/11/17 08:52:40;;;;;;;41.03;17.87;;;10.80;99.90;;;;;;7284058;19;20226;-78
2023/11/17 08:55:08;;;;;;;42.73;18.77;;;10.70;99.90;;;;;;7284029;19;20195;-78
2023/11/17 08:57:35;;;;;;;35.67;17.47;;;10.70;99.90;;;;;;7291711;19;20255;-78
2023/11/17 09:00:11;;;;;;;38.20;18.43;;;10.80;99.90;;;;;;7306450;19;20210;-78
2023/11/17 09:02:41;;;;;;;36.87;17.20;;;10.80;99.90;;;;;;7261828;19;20187;-78
2023/11/17 09:05:11;;;;;;;33.93;17.80;;;10.90;99.90;;;;;;7284797;19;20211;-78
2023/11/17 09:07:40;;;;;;;35.87;15.67;;;10.90;99.90;;;;;;7283556;19;20195;-78
2023/11/17 09:10:08;;;;;;;37.07;17.17;;;10.90;99.90;;;;;;7281627;19;20191;-78
2023/11/17 09:12:41;;;;;;;33.53;15.57;;;11.00;99.90;;;;;;7289807;19;20715;-78
2023/11/17 09:15:08;;;;;;;33.90;16.00;;;11.10;99.90;;;;;;7283335;19;20191;-78
2023/11/17 09:17:35;;;;;;;30.80;15.40;;;11.20;99.90;;;;;;7286269;19;20199;-78
2023/11/17 09:20:04;;;;;;;32.03;15.30;;;11.30;99.90;;;;;;7303651;19;20200;-78
2023/11/17 09:22:30;;;;;;;32.60;14.53;;;11.30;99.90;;;;;;7282912;19;20187;-78
2023/11/17 09:24:56;;;;;;;35.30;15.33;;;11.30;99.90;;;;;;7283745;19;20287;-79
2023/11/17 09:27:22;;;;;;;33.50;14.57;;;11.50;99.90;;;;;;7281962;19;20192;-78
2023/11/17 09:29:48;;;;;;;29.77;14.53;;;11.60;99.90;;;;;;7282666;19;20255;-78
2023/11/17 09:32:14;;;;;;;30.80;14.80;;;11.60;99.90;;;;;;7281170;19;20596;-78
2023/11/17 09:34:40;;;;;;;32.20;14.60;;;11.60;99.90;;;;;;7282867;19;20199;-78
2023/11/17 09:37:07;;;;;;;35.33;14.27;;;11.50;99.90;;;;;;7283466;19;20187;-78
2023/11/17 09:39:33;;;;;;;32.67;14.47;;;11.50;99.90;;;;;;7301197;19;20305;-78
2023/11/17 09:42:02;;;;;;;32.23;14.47;;;11.60;99.90;;;;;;7294837;19;20192;-78
2023/11/17 09:44:31;;;;;;;29.27;14.00;;;11.60;99.90;;;;;;7282799;19;20197;-78
2023/11/17 09:47:08;;;;;;;29.13;13.77;;;11.70;99.90;;;;;;7283656;19;20185;-78
2023/11/17 09:49:37;;;;;;;29.43;13.00;;;11.80;99.90;;;;;;7262309;19;20263;-78
2023/11/17 09:52:04;;;;;;;27.23;13.00;;;11.80;99.90;;;;;;7297331;19;20186;-77
2023/11/17 09:54:33;;;;;;;28.97;12.87;;;11.90;99.90;;;;;;7304190;19;20213;-78
2023/11/17 09:57:01;;;;;;;25.43;12.67;;;11.90;99.90;;;;;;7283234;19;20695;-78
2023/11/17 09:59:28;;;;;;;26.63;13.10;;;12.00;99.90;;;;;;7281978;19;20193;-78
2023/11/17 10:01:56;;;;;;;30.43;12.60;;;12.00;99.90;;;;;;7282884;19;20193;-79
2023/11/17 10:04:24;;;;;;;28.53;11.93;;;12.10;99.90;;;;;;7280941;19;21077;-78
2023/11/17 10:06:52;;;;;;;26.23;11.57;;;12.40;99.90;;;;;;7282903;19;20244;-78
2023/11/17 10:09:23;;;;;;;24.10;10.77;;;12.70;99.90;;;;;;7283155;19;20222;-78
2023/11/17 10:11:51;;;;;;;19.90;10.20;;;13.00;99.90;;;;;;7281671;19;20220;-78
2023/11/17 10:14:22;;;;;;;23.67;10.60;;;13.30;99.90;;;;;;7282376;19;20188;-78
2023/11/17 10:16:50;;;;;;;25.03;11.10;;;13.40;99.90;;;;;;7282648;19;20184;-78
2023/11/17 10:19:18;;;;;;;23.73;9.87;;;13.50;99.90;;;;;;7282583;19;20555;-79
2023/11/17 10:21:46;;;;;;;18.03;9.10;;;13.70;99.90;;;;;;7281297;19;20193;-78
2023/11/17 10:24:11;;;;;;;24.57;10.30;;;13.80;99.90;;;;;;7281185;19;20204;-78
2023/11/17 10:26:39;;;;;;;23.10;9.60;;;13.90;99.90;;;;;;7281067;19;20198;-77
2023/11/17 10:29:06;;;;;;;23.83;9.53;;;13.90;99.90;;;;;;7281390;19;20638;-78
2023/11/17 10:31:40;;;;;;;20.67;9.00;;;13.90;99.90;;;;;;7302759;19;20226;-78
2023/11/17 10:34:13;;;;;;;21.67;9.47;;;13.90;99.90;;;;;;7260549;19;20193;-78
2023/11/17 10:37:04;;;;;;;18.40;8.83;;;14.00;99.90;;;;;;7280915;19;20598;-78
2023/11/17 10:39:31;;;;;;;19.40;8.57;;;14.30;99.90;;;;;;7282717;19;20199;-78
2023/11/17 10:42:15;;;;;;;21.40;8.53;;;14.30;99.90;;;;;;7280324;19;20255;-77
2023/11/17 10:44:41;;;;;;;23.03;8.13;;;14.90;99.90;;;;;;7178283;19;2006007;-78
2023/11/17 10:47:07;;;;;;;16.40;6.87;;;15.40;99.90;;;;;;7280586;19;20192;-78
2023/11/17 10:49:33;;;;;;;18.53;7.50;;;15.90;99.90;;;;;;7294263;19;20196;-78
2023/11/17 10:51:59;;;;;;;19.43;6.77;;;16.60;99.90;;;;;;7297462;19;20181;-78
2023/11/17 10:54:29;;;;;;;18.80;6.90;;;16.30;99.90;;;;;;7277881;19;20198;-78
2023/11/17 10:57:10;;;;;;;18.20;8.07;;;15.90;99.90;;;;;;7280734;19;20651;-79
2023/11/17 10:59:36;;;;;;;16.17;7.33;;;15.80;99.90;;;;;;7259268;19;20181;-78
2023/11/17 11:02:03;;;;;;;16.77;7.00;;;15.80;99.90;;;;;;7302075;19;20662;-78
2023/11/17 11:04:32;;;;;;;12.27;5.93;;;16.60;99.90;;;;;;7281092;19;20190;-79
2023/11/17 11:07:01;;;;;;;10.97;5.77;;;17.60;99.90;;;;;;7280891;19;20215;-78
2023/11/17 11:09:37;;;;;;;19.93;10.00;;;18.60;99.90;;;;;;7286303;19;20215;-78
2023/11/17 11:12:06;;;;;;;20.63;10.27;;;19.50;99.90;;;;;;7285009;19;20187;-78
2023/11/17 11:14:32;;;;;;;13.93;6.83;;;19.90;99.90;;;;;;7309069;19;20186;-78
2023/11/17 11:16:59;;;;;;;14.07;5.90;;;20.00;99.90;;;;;;7286979;19;20202;-78
2023/11/17 11:19:29;;;;;;;14.87;5.87;;;19.60;99.90;;;;;;7287804;19;20737;-78
2023/11/17 11:22:00;;;;;;;13.47;5.37;;;19.10;99.90;;;;;;7286345;19;20206;-79
2023/11/17 11:24:32;;;;;;;13.60;5.47;;;18.70;99.90;;;;;;7285990;19;20201;-78
2023/11/17 11:26:59;;;;;;;11.90;5.27;;;18.30;99.90;;;;;;7287616;19;20200;-78
2023/11/17 11:29:25;;;;;;;11.57;5.30;;;18.20;99.90;;;;;;7286497;19;20197;-78
2023/11/17 11:31:52;;;;;;;11.43;5.30;;;18.20;99.90;;;;;;7284686;19;20531;-78
2023/11/17 11:34:18;;;;;;;12.67;5.20;;;17.90;99.90;;;;;;7287207;19;20617;-79
2023/11/17 11:36:47;;;;;;;12.03;5.47;;;17.40;99.90;;;;;;7286141;19;20189;-78
2023/11/17 11:39:13;;;;;;;11.63;4.97;;;16.90;99.90;;;;;;7287313;19;20198;-78
2023/11/17 11:41:41;;;;;;;11.97;5.07;;;16.60;99.90;;;;;;7286769;19;20179;-77
2023/11/17 11:44:09;;;;;;;10.73;4.87;;;16.30;99.90;;;;;;7286043;19;20189;-78
2023/11/17 11:46:37;;;;;;;13.40;5.00;;;16.00;99.90;;;;;;7285649;19;20263;-78
2023/11/17 11:49:08;;;;;;;13.70;4.90;;;15.80;99.90;;;;;;7308206;19;20191;-78
2023/11/17 11:51:53;;;;;;;9.20;4.87;;;15.60;99.90;;;;;;7297680;19;20212;-78
2023/11/17 11:54:23;;;;;;;11.07;5.40;;;15.50;99.90;;;;;;7286671;19;20711;-77
2023/11/17 11:56:49;;;;;;;11.87;6.20;;;15.40;99.90;;;;;;7287065;19;20191;-78
2023/11/17 11:59:15;;;;;;;13.53;5.33;;;15.30;99.90;;;;;;7285452;19;20727;-78
2023/11/17 12:01:47;;;;;;;13.87;5.53;;;15.10;99.90;;;;;;7285361;19;20430;-78
2023/11/17 12:04:12;;;;;;;16.13;5.60;;;15.00;99.90;;;;;;7284548;19;20288;-78
2023/11/17 12:06:44;;;;;;;13.77;6.00;;;14.60;99.90;;;;;;7284859;19;20661;-78
2023/11/17 12:09:16;;;;;;;11.07;5.37;;;14.50;99.90;;;;;;7285305;19;20195;-78
2023/11/17 12:11:47;;;;;;;12.40;4.93;;;14.40;99.90;;;;;;7285808;19;20221;-78
2023/11/17 12:14:17;;;;;;;11.33;4.30;;;14.30;99.90;;;;;;7286648;19;20189;-78
2023/11/17 12:16:53;;;;;;;9.70;4.07;;;14.20;99.90;;;;;;7286375;19;20204;-77
2023/11/17 12:19:21;;;;;;;9.83;4.63;;;14.00;99.90;;;;;;7285596;19;20229;-78
2023/11/17 12:21:49;;;;;;;13.57;5.17;;;14.00;99.90;;;;;;7285692;19;20198;-78
2023/11/17 12:24:27;;;;;;;10.13;3.90;;;14.10;99.90;;;;;;7284934;19;20207;-78
2023/11/17 12:26:54;;;;;;;13.87;3.97;;;14.00;99.90;;;;;;7286925;19;20679;-78
2023/11/17 12:29:25;;;;;;;11.07;4.77;;;13.80;99.90;;;;;;7284932;19;20193;-78
2023/11/17 12:31:52;;;;;;;10.07;4.23;;;13.90;99.90;;;;;;7286097;19;20194;-78
2023/11/17 12:34:18;;;;;;;9.70;4.10;;;13.80;99.90;;;;;;7286237;19;20274;-78
2023/11/17 12:36:47;;;;;;;10.67;3.40;;;14.00;99.90;;;;;;7281882;19;20229;-77